Jinjya Maru — JI3550 — position and weather

sailwx.info

Track history (hours):
 
Tides and Currents Weather Stations Pressure Air Temp Water Temp Dewpoint Dewpoint Depression Visibility Wind Speed Wind Dir Waves Ship Positions

Jinjya Maru

Last reported at 2018-Jun-19 05:45 UTC. Time now 2018-Jun-19 22:20 UTC.
Position N 34°28' E 134°30'.

Length 48 m.

Type: Tanker. MMSI: 431300336.

Date/timePositionNaut miles runAvg speedWind from/ knotsBaromVisibWave heightAir tempDewpointWater temp
2018-Jun-19 05:45N 34°28' E 134°30'29 9.7
2018-Jun-19 02:47N 34°37' E 135°04'310.0
2018-Jun-19 02:29N 34°36' E 135°08'5 9.6
2018-Jun-19 02:00N 34°36' E 135°13'5 9.3
2018-Jun-19 01:29N 34°36' E 135°19'6 3.4
2018-Jun-18 23:44N 34°34' E 135°26'0 0.0
2018-Jun-18 23:20N 34°34' E 135°26'0 0.0
2018-Jun-18 22:56N 34°34' E 135°26'0 0.3
2018-Jun-18 22:28N 34°34' E 135°26'1 0.2
2018-Jun-18 19:11N 34°35' E 135°25'0 0.0
2018-Jun-18 18:04N 34°35' E 135°25'0 0.0
2018-Jun-18 17:58N 34°35' E 135°25'0 0.0
2018-Jun-18 17:28N 34°35' E 135°25'0 0.0
2018-Jun-18 16:46N 34°35' E 135°25'0 0.0
2018-Jun-18 16:16N 34°35' E 135°25'0 0.0
2018-Jun-18 15:46N 34°35' E 135°25'0 0.0
2018-Jun-18 15:16N 34°35' E 135°25'0 0.0
2018-Jun-18 14:58N 34°35' E 135°25'0 0.0
2018-Jun-18 14:22N 34°35' E 135°25'0 0.0
2018-Jun-18 13:52N 34°35' E 135°25'0 0.0
2018-Jun-18 11:10N 34°35' E 135°25'1 5.9
2018-Jun-18 11:00N 34°36' E 135°25'7 9.9
2018-Jun-18 10:20N 34°36' E 135°17'410.1
2018-Jun-18 09:58N 34°36' E 135°12'611.1
2018-Jun-18 09:24N 34°35' E 135°05'1212.9
2018-Jun-18 08:30N 34°34' E 134°51'611.7
2018-Jun-18 08:00N 34°32' E 134°44'610.9
2018-Jun-18 07:29N 34°29' E 134°38'6 0.1
2018-Jun-16 11:44N 34°28' E 134°30'28 9.4
2018-Jun-16 08:46N 34°37' E 135°02'3 8.9
2018-Jun-16 08:28N 34°37' E 135°06'4 9.3
2018-Jun-16 08:00N 34°37' E 135°11'4 8.8
2018-Jun-16 07:30N 34°37' E 135°16'6 8.8
2018-Jun-16 06:51N 34°36' E 135°23'3 6.0
2018-Jun-16 06:22N 34°34' E 135°26'0 0.0
2018-Jun-16 05:52N 34°34' E 135°26'0 0.0
2018-Jun-16 05:09N 34°34' E 135°26'0 0.0
2018-Jun-16 04:45N 34°34' E 135°26'0 0.4
2018-Jun-16 04:11N 34°34' E 135°26'1 2.6
2018-Jun-16 03:59N 34°35' E 135°25'1 1.2
2018-Jun-16 03:28N 34°36' E 135°25'5 9.3
2018-Jun-16 02:59N 34°35' E 135°20'5 9.6
2018-Jun-16 02:28N 34°36' E 135°14'5 9.9
2018-Jun-16 01:59N 34°36' E 135°08'13 8.6
2018-Jun-16 00:28N 34°35' E 134°52'5 8.7
2018-Jun-15 23:51N 34°32' E 134°46'3 9.1
2018-Jun-15 23:30N 34°31' E 134°43'5 9.6
2018-Jun-15 22:59N 34°29' E 134°37'6 0.1
2018-Jun-14 07:15N 34°28' E 134°30'28 7.3
2018-Jun-14 03:29N 34°38' E 135°02'3 6.5
2018-Jun-14 02:59N 34°37' E 135°06'4 8.6
2018-Jun-14 02:31N 34°37' E 135°11'5 9.3
2018-Jun-14 02:00N 34°37' E 135°16'5 9.4
2018-Jun-14 01:30N 34°36' E 135°22'4 3.7
2018-Jun-14 00:32N 34°34' E 135°26'0 0.0
2018-Jun-13 23:02N 34°34' E 135°26'0 0.0
2018-Jun-13 22:56N 34°34' E 135°26'1 0.2
2018-Jun-13 19:32N 34°35' E 135°25'0 6.1
2018-Jun-13 19:30N 34°35' E 135°25'5 9.2
2018-Jun-13 19:00N 34°36' E 135°20'5 9.9
2018-Jun-13 18:31N 34°36' E 135°14'510.6
2018-Jun-13 18:01N 34°36' E 135°08'1312.0
2018-Jun-13 16:56N 34°34' E 134°52'611.0
2018-Jun-13 16:25N 34°32' E 134°46'410.1
2018-Jun-13 15:59N 34°30' E 134°41'510.2
2018-Jun-13 15:30N 34°29' E 134°35'  
2018-Jun-10 05:04N 34°28' E 134°30'9 9.7
2018-Jun-10 04:08N 34°32' E 134°40'19 8.0
2018-Jun-10 01:45N 34°37' E 135°02'2 9.3
2018-Jun-10 01:30N 34°37' E 135°05'510.3
2018-Jun-10 00:59N 34°37' E 135°12'510.2
2018-Jun-10 00:27N 34°37' E 135°18'510.2
2018-Jun-10 00:00N 34°36' E 135°24'2 3.5
2018-Jun-09 23:19N 34°34' E 135°26'0 0.0
2018-Jun-09 22:55N 34°34' E 135°26'0 0.0
2018-Jun-09 14:19N 34°34' E 135°26'2 7.0
2018-Jun-09 13:59N 34°36' E 135°24'5 9.3
2018-Jun-09 13:30N 34°36' E 135°18'5 9.1
2018-Jun-09 13:00N 34°36' E 135°13'5 9.8
2018-Jun-09 12:28N 34°36' E 135°06'13 9.8
2018-Jun-09 11:10N 34°34' E 134°51'2 9.1
2018-Jun-09 10:58N 34°33' E 134°49'4 9.0
2018-Jun-09 10:30N 34°32' E 134°45'7 9.7
2018-Jun-09 09:46N 34°29' E 134°37'310.2
2018-Jun-09 09:31N 34°28' E 134°34'  
Track history (hours):
 
Tides and Currents Weather Stations Pressure Air Temp Water Temp Dewpoint Dewpoint Depression Visibility Wind Speed Wind Dir Waves Ship Positions

Jinjya Maru

Last reported at 2018-Jun-19 05:45 UTC. Time now 2018-Jun-19 22:20 UTC.
Position N 34°28' E 134°30'.

Length 48 m.

Type: Tanker. MMSI: 431300336.

Date/timePositionNaut miles runAvg speedWind from/ knotsBaromVisibWave heightAir tempDewpointWater temp
2018-Jun-19 05:45N 34°28' E 134°30'29 9.7
2018-Jun-19 02:47N 34°37' E 135°04'310.0
2018-Jun-19 02:29N 34°36' E 135°08'5 9.6
2018-Jun-19 02:00N 34°36' E 135°13'5 9.3
2018-Jun-19 01:29N 34°36' E 135°19'6 3.4
2018-Jun-18 23:44N 34°34' E 135°26'0 0.0
2018-Jun-18 23:20N 34°34' E 135°26'0 0.0
2018-Jun-18 22:56N 34°34' E 135°26'0 0.3
2018-Jun-18 22:28N 34°34' E 135°26'1 0.2
2018-Jun-18 19:11N 34°35' E 135°25'0 0.0
2018-Jun-18 18:04N 34°35' E 135°25'0 0.0
2018-Jun-18 17:58N 34°35' E 135°25'0 0.0
2018-Jun-18 17:28N 34°35' E 135°25'0 0.0
2018-Jun-18 16:46N 34°35' E 135°25'0 0.0
2018-Jun-18 16:16N 34°35' E 135°25'0 0.0
2018-Jun-18 15:46N 34°35' E 135°25'0 0.0
2018-Jun-18 15:16N 34°35' E 135°25'0 0.0
2018-Jun-18 14:58N 34°35' E 135°25'0 0.0
2018-Jun-18 14:22N 34°35' E 135°25'0 0.0
2018-Jun-18 13:52N 34°35' E 135°25'0 0.0
2018-Jun-18 11:10N 34°35' E 135°25'1 5.9
2018-Jun-18 11:00N 34°36' E 135°25'7 9.9
2018-Jun-18 10:20N 34°36' E 135°17'410.1
2018-Jun-18 09:58N 34°36' E 135°12'611.1
2018-Jun-18 09:24N 34°35' E 135°05'1212.9
2018-Jun-18 08:30N 34°34' E 134°51'611.7
2018-Jun-18 08:00N 34°32' E 134°44'610.9
2018-Jun-18 07:29N 34°29' E 134°38'6 0.1
2018-Jun-16 11:44N 34°28' E 134°30'28 9.4
2018-Jun-16 08:46N 34°37' E 135°02'3 8.9
2018-Jun-16 08:28N 34°37' E 135°06'4 9.3
2018-Jun-16 08:00N 34°37' E 135°11'4 8.8
2018-Jun-16 07:30N 34°37' E 135°16'6 8.8
2018-Jun-16 06:51N 34°36' E 135°23'3 6.0
2018-Jun-16 06:22N 34°34' E 135°26'0 0.0
2018-Jun-16 05:52N 34°34' E 135°26'0 0.0
2018-Jun-16 05:09N 34°34' E 135°26'0 0.0
2018-Jun-16 04:45N 34°34' E 135°26'0 0.4
2018-Jun-16 04:11N 34°34' E 135°26'1 2.6
2018-Jun-16 03:59N 34°35' E 135°25'1 1.2
2018-Jun-16 03:28N 34°36' E 135°25'5 9.3
2018-Jun-16 02:59N 34°35' E 135°20'5 9.6
2018-Jun-16 02:28N 34°36' E 135°14'5 9.9
2018-Jun-16 01:59N 34°36' E 135°08'13 8.6
2018-Jun-16 00:28N 34°35' E 134°52'5 8.7
2018-Jun-15 23:51N 34°32' E 134°46'3 9.1
2018-Jun-15 23:30N 34°31' E 134°43'5 9.6
2018-Jun-15 22:59N 34°29' E 134°37'6 0.1
2018-Jun-14 07:15N 34°28' E 134°30'28 7.3
2018-Jun-14 03:29N 34°38' E 135°02'3 6.5
2018-Jun-14 02:59N 34°37' E 135°06'4 8.6
2018-Jun-14 02:31N 34°37' E 135°11'5 9.3
2018-Jun-14 02:00N 34°37' E 135°16'5 9.4
2018-Jun-14 01:30N 34°36' E 135°22'4 3.7
2018-Jun-14 00:32N 34°34' E 135°26'0 0.0
2018-Jun-13 23:02N 34°34' E 135°26'0 0.0
2018-Jun-13 22:56N 34°34' E 135°26'1 0.2
2018-Jun-13 19:32N 34°35' E 135°25'0 6.1
2018-Jun-13 19:30N 34°35' E 135°25'5 9.2
2018-Jun-13 19:00N 34°36' E 135°20'5 9.9
2018-Jun-13 18:31N 34°36' E 135°14'510.6
2018-Jun-13 18:01N 34°36' E 135°08'1312.0
2018-Jun-13 16:56N 34°34' E 134°52'611.0
2018-Jun-13 16:25N 34°32' E 134°46'410.1
2018-Jun-13 15:59N 34°30' E 134°41'510.2
2018-Jun-13 15:30N 34°29' E 134°35'  
2018-Jun-10 05:04N 34°28' E 134°30'9 9.7
2018-Jun-10 04:08N 34°32' E 134°40'19 8.0
2018-Jun-10 01:45N 34°37' E 135°02'2 9.3
2018-Jun-10 01:30N 34°37' E 135°05'510.3
2018-Jun-10 00:59N 34°37' E 135°12'510.2
2018-Jun-10 00:27N 34°37' E 135°18'510.2
2018-Jun-10 00:00N 34°36' E 135°24'2 3.5
2018-Jun-09 23:19N 34°34' E 135°26'0 0.0
2018-Jun-09 22:55N 34°34' E 135°26'0 0.0
2018-Jun-09 14:19N 34°34' E 135°26'2 7.0
2018-Jun-09 13:59N 34°36' E 135°24'5 9.3
2018-Jun-09 13:30N 34°36' E 135°18'5 9.1
2018-Jun-09 13:00N 34°36' E 135°13'5 9.8
2018-Jun-09 12:28N 34°36' E 135°06'13 9.8
2018-Jun-09 11:10N 34°34' E 134°51'2 9.1
2018-Jun-09 10:58N 34°33' E 134°49'4 9.0
2018-Jun-09 10:30N 34°32' E 134°45'7 9.7
2018-Jun-09 09:46N 34°29' E 134°37'310.2
2018-Jun-09 09:31N 34°28' E 134°34'  

Dump ship's entire track history